sensor_id;sensor_type;location;lat;lon;timestamp;pressure;altitude;pressure_sealevel;temperature;humidity
7337;BME280;54510;42.016;23.098;2023-05-09T00:00:12;-21618.94;;;17.66;81.79
7337;BME280;54510;42.016;23.098;2023-05-09T00:02:38;-21614.94;;;17.52;82.43
7337;BME280;54510;42.016;23.098;2023-05-09T00:05:03;-21607.38;;;17.24;83.06
7337;BME280;54510;42.016;23.098;2023-05-09T00:07:29;-21608.59;;;17.28;83.71
7337;BME280;54510;42.016;23.098;2023-05-09T00:09:55;-21612.75;;;17.44;83.33
7337;BME280;54510;42.016;23.098;2023-05-09T00:12:20;-21607.94;;;17.26;83.38
7337;BME280;54510;42.016;23.098;2023-05-09T00:14:46;-21610.25;;;17.34;82.85
7337;BME280;54510;42.016;23.098;2023-05-09T00:17:16;-21608.59;;;17.28;83.20
7337;BME280;54510;42.016;23.098;2023-05-09T00:19:42;-21616.88;;;17.59;82.08
7337;BME280;54510;42.016;23.098;2023-05-09T00:22:08;-21620.88;;;17.73;81.23
7337;BME280;54510;42.016;23.098;2023-05-09T00:24:33;-21621.28;;;17.75;81.48
7337;BME280;54510;42.016;23.098;2023-05-09T00:26:58;-21621.41;;;17.75;81.50
7337;BME280;54510;42.016;23.098;2023-05-09T00:29:24;-21615.75;;;17.55;81.90
7337;BME280;54510;42.016;23.098;2023-05-09T00:31:49;-21616.19;;;17.56;82.31
7337;BME280;54510;42.016;23.098;2023-05-09T00:34:14;-21617.97;;;17.63;81.90
7337;BME280;54510;42.016;23.098;2023-05-09T00:36:40;-21617.16;;;17.60;81.84
7337;BME280;54510;42.016;23.098;2023-05-09T00:39:05;-21616.72;;;17.58;82.06
7337;BME280;54510;42.016;23.098;2023-05-09T00:41:31;-21618.66;;;17.65;82.24
7337;BME280;54510;42.016;23.098;2023-05-09T00:43:57;-21621.41;;;17.75;81.50
7337;BME280;54510;42.016;23.098;2023-05-09T00:46:22;-21620.44;;;17.72;81.70
7337;BME280;54510;42.016;23.098;2023-05-09T00:48:47;-21620.72;;;17.73;81.47
7337;BME280;54510;42.016;23.098;2023-05-09T00:51:13;-21620.44;;;17.72;81.46
7337;BME280;54510;42.016;23.098;2023-05-09T00:53:38;-21617.56;;;17.61;82.19
7337;BME280;54510;42.016;23.098;2023-05-09T00:56:04;-21618.53;;;17.65;82.31
7337;BME280;54510;42.016;23.098;2023-05-09T00:58:30;-21614.66;;;17.51;82.46
7337;BME280;54510;42.016;23.098;2023-05-09T01:00:55;-21618.13;;;17.63;82.33
7337;BME280;54510;42.016;23.098;2023-05-09T01:03:21;-21617.16;;;17.60;81.91
7337;BME280;54510;42.016;23.098;2023-05-09T01:08:41;-21614.66;;;17.51;81.98
7337;BME280;54510;42.016;23.098;2023-05-09T01:11:09;-21615.50;;;17.54;82.13
7337;BME280;54510;42.016;23.098;2023-05-09T01:16:11;-21621.13;;;17.74;82.01
7337;BME280;54510;42.016;23.098;2023-05-09T01:21:28;-21615.09;;;17.52;81.95
7337;BME280;54510;42.016;23.098;2023-05-09T01:26:45;-21616.47;;;17.57;82.65
7337;BME280;54510;42.016;23.098;2023-05-09T01:31:47;-21612.59;;;17.43;82.79
7337;BME280;54510;42.016;23.098;2023-05-09T01:34:14;-21616.72;;;17.58;82.53
7337;BME280;54510;42.016;23.098;2023-05-09T01:36:39;-21614.81;;;17.51;82.67
7337;BME280;54510;42.016;23.098;2023-05-09T01:39:06;-21615.22;;;17.53;83.32
7337;BME280;54510;42.016;23.098;2023-05-09T01:41:35;-21613.44;;;17.46;83.35
7337;BME280;54510;42.016;23.098;2023-05-09T01:44:02;-21613.56;;;17.47;82.67
7337;BME280;54510;42.016;23.098;2023-05-09T01:46:28;-21612.59;;;17.43;83.34
7337;BME280;54510;42.016;23.098;2023-05-09T01:48:54;-21611.78;;;17.40;83.34
7337;BME280;54510;42.016;23.098;2023-05-09T01:51:20;-21615.63;;;17.54;83.20
7337;BME280;54510;42.016;23.098;2023-05-09T01:53:46;-21617.56;;;17.61;81.95
7337;BME280;54510;42.016;23.098;2023-05-09T01:56:12;-21616.59;;;17.58;82.06
7337;BME280;54510;42.016;23.098;2023-05-09T01:58:38;-21614.25;;;17.49;82.50
7337;BME280;54510;42.016;23.098;2023-05-09T02:01:05;-21616.72;;;17.58;82.53
7337;BME280;54510;42.016;23.098;2023-05-09T02:03:31;-21612.59;;;17.43;82.15
7337;BME280;54510;42.016;23.098;2023-05-09T02:05:58;-21614.81;;;17.51;82.29
7337;BME280;54510;42.016;23.098;2023-05-09T02:08:23;-21616.59;;;17.58;82.27
7337;BME280;54510;42.016;23.098;2023-05-09T02:10:49;-21619.22;;;17.67;82.38
7337;BME280;54510;42.016;23.098;2023-05-09T02:13:14;-21618.13;;;17.63;82.09
7337;BME280;54510;42.016;23.098;2023-05-09T02:15:40;-21620.44;;;17.72;81.92
7337;BME280;54510;42.016;23.098;2023-05-09T02:18:06;-21619.06;;;17.67;81.66
7337;BME280;54510;42.016;23.098;2023-05-09T02:20:31;-21610.53;;;17.35;82.50
7337;BME280;54510;42.016;23.098;2023-05-09T02:22:59;-21611.22;;;17.38;82.86
7337;BME280;54510;42.016;23.098;2023-05-09T02:25:25;-21610.13;;;17.34;81.67
7337;BME280;54510;42.016;23.098;2023-05-09T02:27:50;-21614.25;;;17.49;81.70
7337;BME280;54510;42.016;23.098;2023-05-09T02:30:18;-21613.44;;;17.46;81.20
7337;BME280;54510;42.016;23.098;2023-05-09T02:32:47;-21612.31;;;17.42;81.47
7337;BME280;54510;42.016;23.098;2023-05-09T02:35:14;-21614.25;;;17.49;80.55
7337;BME280;54510;42.016;23.098;2023-05-09T02:37:40;-21613.16;;;17.45;80.50
7337;BME280;54510;42.016;23.098;2023-05-09T02:40:06;-21612.59;;;17.43;80.06
7337;BME280;54510;42.016;23.098;2023-05-09T02:42:33;-21610.41;;;17.35;80.37
7337;BME280;54510;42.016;23.098;2023-05-09T02:44:58;-21611.22;;;17.38;80.42
7337;BME280;54510;42.016;23.098;2023-05-09T02:47:24;-21609.84;;;17.33;80.36
7337;BME280;54510;42.016;23.098;2023-05-09T02:49:50;-21608.19;;;17.27;80.90
7337;BME280;54510;42.016;23.098;2023-05-09T02:52:15;-21604.91;;;17.15;81.83
7337;BME280;54510;42.016;23.098;2023-05-09T02:54:40;-21605.31;;;17.16;81.70
7337;BME280;54510;42.016;23.098;2023-05-09T02:57:06;-21611.50;;;17.39;80.84
7337;BME280;54510;42.016;23.098;2023-05-09T02:59:31;-21615.63;;;17.54;79.99
7337;BME280;54510;42.016;23.098;2023-05-09T03:01:56;-21616.03;;;17.56;79.63
7337;BME280;54510;42.016;23.098;2023-05-09T03:04:22;-21613.44;;;17.46;79.81
7337;BME280;54510;42.016;23.098;2023-05-09T03:06:47;-21611.09;;;17.37;80.02
7337;BME280;54510;42.016;23.098;2023-05-09T03:09:13;-21613.44;;;17.46;80.54
7337;BME280;54510;42.016;23.098;2023-05-09T03:11:38;-21610.53;;;17.35;80.36
7337;BME280;54510;42.016;23.098;2023-05-09T03:14:03;-21607.38;;;17.24;80.66
7337;BME280;54510;42.016;23.098;2023-05-09T03:16:28;-21607.38;;;17.24;80.88
7337;BME280;54510;42.016;23.098;2023-05-09T03:18:54;-21607.94;;;17.26;80.93
7337;BME280;54510;42.016;23.098;2023-05-09T03:21:20;-21603.53;;;17.10;81.52
7337;BME280;54510;42.016;23.098;2023-05-09T03:23:45;-21608.06;;;17.26;81.08
7337;BME280;54510;42.016;23.098;2023-05-09T03:26:10;-21606.53;;;17.21;81.49
7337;BME280;54510;42.016;23.098;2023-05-09T03:28:36;-21612.59;;;17.43;81.00
7337;BME280;54510;42.016;23.098;2023-05-09T03:31:02;-21609.72;;;17.32;80.75
7337;BME280;54510;42.016;23.098;2023-05-09T03:33:27;-21613.16;;;17.45;80.99
7337;BME280;54510;42.016;23.098;2023-05-09T03:35:52;-21611.22;;;17.38;81.19
7337;BME280;54510;42.016;23.098;2023-05-09T03:38:17;-21612.59;;;17.43;80.77
7337;BME280;54510;42.016;23.098;2023-05-09T03:40:43;-21615.34;;;17.53;80.51
7337;BME280;54510;42.016;23.098;2023-05-09T03:43:08;-21616.47;;;17.57;80.28
7337;BME280;54510;42.016;23.098;2023-05-09T03:45:33;-21617.69;;;17.62;79.73
7337;BME280;54510;42.016;23.098;2023-05-09T03:48:00;-21613.44;;;17.46;80.36
7337;BME280;54510;42.016;23.098;2023-05-09T03:50:27;-21612.88;;;17.44;80.21
7337;BME280;54510;42.016;23.098;2023-05-09T03:52:53;-21617.56;;;17.61;79.69
7337;BME280;54510;42.016;23.098;2023-05-09T03:55:19;-21619.34;;;17.68;79.06
7337;BME280;54510;42.016;23.098;2023-05-09T03:57:44;-21619.50;;;17.68;78.69
7337;BME280;54510;42.016;23.098;2023-05-09T04:00:10;-21620.19;;;17.71;78.71
7337;BME280;54510;42.016;23.098;2023-05-09T04:02:36;-21621.13;;;17.74;78.78
7337;BME280;54510;42.016;23.098;2023-05-09T04:05:01;-21621.00;;;17.74;78.88
7337;BME280;54510;42.016;23.098;2023-05-09T04:07:27;-21623.06;;;17.82;77.94
7337;BME280;54510;42.016;23.098;2023-05-09T04:09:56;-21621.81;;;17.77;76.30
7337;BME280;54510;42.016;23.098;2023-05-09T04:12:21;-21622.78;;;17.81;75.71
7337;BME280;54510;42.016;23.098;2023-05-09T04:14:46;-21619.75;;;17.69;76.20
7337;BME280;54510;42.016;23.098;2023-05-09T04:17:12;-21620.03;;;17.70;77.19
7337;BME280;54510;42.016;23.098;2023-05-09T04:19:37;-21621.69;;;17.76;77.12
7337;BME280;54510;42.016;23.098;2023-05-09T04:22:02;-21623.63;;;17.84;76.05
7337;BME280;54510;42.016;23.098;2023-05-09T04:24:27;-21624.44;;;17.87;75.60
7337;BME280;54510;42.016;23.098;2023-05-09T04:26:53;-21624.72;;;17.88;75.44
7337;BME280;54510;42.016;23.098;2023-05-09T04:29:18;-21625.00;;;17.89;74.47
7337;BME280;54510;42.016;23.098;2023-05-09T04:31:43;-21627.59;;;17.98;74.60
7337;BME280;54510;42.016;23.098;2023-05-09T04:34:08;-21628.00;;;18.00;74.30
7337;BME280;54510;42.016;23.098;2023-05-09T04:36:34;-21628.16;;;18.00;73.16
7337;BME280;54510;42.016;23.098;2023-05-09T04:38:59;-21631.59;;;18.13;72.58
7337;BME280;54510;42.016;23.098;2023-05-09T04:41:24;-21630.50;;;18.09;72.12
7337;BME280;54510;42.016;23.098;2023-05-09T04:43:50;-21629.94;;;18.07;73.17
7337;BME280;54510;42.016;23.098;2023-05-09T04:46:16;-21630.34;;;18.08;72.54
7337;BME280;54510;42.016;23.098;2023-05-09T04:48:41;-21632.00;;;18.14;71.41
7337;BME280;54510;42.016;23.098;2023-05-09T04:51:06;-21632.69;;;18.17;71.24
7337;BME280;54510;42.016;23.098;2023-05-09T04:53:32;-21635.44;;;18.27;71.38
7337;BME280;54510;42.016;23.098;2023-05-09T04:55:58;-21637.63;;;18.35;71.21
7337;BME280;54510;42.016;23.098;2023-05-09T04:58:23;-21639.00;;;18.40;70.76
7337;BME280;54510;42.016;23.098;2023-05-09T05:00:50;-21640.25;;;18.45;70.41
7337;BME280;54510;42.016;23.098;2023-05-09T05:03:15;-21639.56;;;18.42;70.09
7337;BME280;54510;42.016;23.098;2023-05-09T05:05:41;-21638.31;;;18.38;69.95
7337;BME280;54510;42.016;23.098;2023-05-09T05:08:07;-21640.81;;;18.47;70.10
7337;BME280;54510;42.016;23.098;2023-05-09T05:10:32;-21638.75;;;18.39;68.53
7337;BME280;54510;42.016;23.098;2023-05-09T05:12:57;-21637.38;;;18.34;68.64
7337;BME280;54510;42.016;23.098;2023-05-09T05:15:23;-21639.69;;;18.43;68.90
7337;BME280;54510;42.016;23.098;2023-05-09T05:17:48;-21638.03;;;18.37;67.71
7337;BME280;54510;42.016;23.098;2023-05-09T05:20:13;-21635.84;;;18.29;67.06
7337;BME280;54510;42.016;23.098;2023-05-09T05:22:38;-21638.31;;;18.38;67.59
7337;BME280;54510;42.016;23.098;2023-05-09T05:25:04;-21632.28;;;18.15;67.17
7337;BME280;54510;42.016;23.098;2023-05-09T05:27:29;-21637.09;;;18.33;68.05
7337;BME280;54510;42.016;23.098;2023-05-09T05:29:55;-21644.50;;;18.61;68.11
7337;BME280;54510;42.016;23.098;2023-05-09T05:32:20;-21647.53;;;18.72;67.65
7337;BME280;54510;42.016;23.098;2023-05-09T05:34:45;-21642.16;;;18.52;66.53
7337;BME280;54510;42.016;23.098;2023-05-09T05:37:11;-21642.88;;;18.54;66.46
7337;BME280;54510;42.016;23.098;2023-05-09T05:39:36;-21645.19;;;18.63;66.72
7337;BME280;54510;42.016;23.098;2023-05-09T05:42:01;-21645.19;;;18.63;67.02
7337;BME280;54510;42.016;23.098;2023-05-09T05:44:26;-21641.75;;;18.50;68.22
7337;BME280;54510;42.016;23.098;2023-05-09T05:46:52;-21646.72;;;18.69;66.99
7337;BME280;54510;42.016;23.098;2023-05-09T05:49:17;-21646.72;;;18.69;67.13
7337;BME280;54510;42.016;23.098;2023-05-09T05:51:42;-21648.38;;;18.75;66.81
7337;BME280;54510;42.016;23.098;2023-05-09T05:54:07;-21649.72;;;18.80;66.86
7337;BME280;54510;42.016;23.098;2023-05-09T05:56:33;-21647.53;;;18.72;66.63
7337;BME280;54510;42.016;23.098;2023-05-09T05:58:58;-21645.06;;;18.63;67.65
7337;BME280;54510;42.016;23.098;2023-05-09T06:01:23;-21644.66;;;18.61;68.06
7337;BME280;54510;42.016;23.098;2023-05-09T06:03:49;-21643.56;;;18.57;67.71
7337;BME280;54510;42.016;23.098;2023-05-09T06:06:19;-21645.63;;;18.65;68.30
7337;BME280;54510;42.016;23.098;2023-05-09T06:08:44;-21649.31;;;18.78;67.47
7337;BME280;54510;42.016;23.098;2023-05-09T06:11:10;-21652.34;;;18.89;67.55
7337;BME280;54510;42.016;23.098;2023-05-09T06:13:35;-21653.31;;;18.93;67.54
7337;BME280;54510;42.016;23.098;2023-05-09T06:16:01;-21656.59;;;19.05;67.39
7337;BME280;54510;42.016;23.098;2023-05-09T06:18:26;-21660.44;;;19.19;66.77
7337;BME280;54510;42.016;23.098;2023-05-09T06:20:51;-21661.28;;;19.22;66.41
7337;BME280;54510;42.016;23.098;2023-05-09T06:23:16;-21664.97;;;19.36;66.58
7337;BME280;54510;42.016;23.098;2023-05-09T06:25:46;-21660.59;;;19.20;66.53
7337;BME280;54510;42.016;23.098;2023-05-09T06:28:11;-21661.28;;;19.22;66.85
7337;BME280;54510;42.016;23.098;2023-05-09T06:30:36;-21666.06;;;19.40;66.17
7337;BME280;54510;42.016;23.098;2023-05-09T06:33:01;-21671.16;;;19.59;66.27
7337;BME280;54510;42.016;23.098;2023-05-09T06:35:27;-21674.03;;;19.69;65.57
7337;BME280;54510;42.016;23.098;2023-05-09T06:37:52;-21666.75;;;19.43;65.67
7337;BME280;54510;42.016;23.098;2023-05-09T06:40:17;-21664.44;;;19.34;65.68
7337;BME280;54510;42.016;23.098;2023-05-09T06:42:43;-21667.16;;;19.44;65.78
7337;BME280;54510;42.016;23.098;2023-05-09T06:45:08;-21663.06;;;19.29;66.14
7337;BME280;54510;42.016;23.098;2023-05-09T06:47:34;-21661.69;;;19.24;66.33
7337;BME280;54510;42.016;23.098;2023-05-09T06:49:59;-21665.94;;;19.40;66.37
7337;BME280;54510;42.016;23.098;2023-05-09T06:52:24;-21665.78;;;19.39;65.26
7337;BME280;54510;42.016;23.098;2023-05-09T06:54:50;-21661.13;;;19.22;64.61
7337;BME280;54510;42.016;23.098;2023-05-09T06:57:15;-21667.59;;;19.46;64.77
7337;BME280;54510;42.016;23.098;2023-05-09T06:59:40;-21663.06;;;19.29;65.05
7337;BME280;54510;42.016;23.098;2023-05-09T07:02:05;-21662.09;;;19.25;65.54
7337;BME280;54510;42.016;23.098;2023-05-09T07:04:31;-21662.91;;;19.28;65.50
7337;BME280;54510;42.016;23.098;2023-05-09T07:06:56;-21663.19;;;19.29;66.10
7337;BME280;54510;42.016;23.098;2023-05-09T07:09:23;-21664.97;;;19.36;64.85
7337;BME280;54510;42.016;23.098;2023-05-09T07:11:51;-21663.59;;;19.31;65.62
7337;BME280;54510;42.016;23.098;2023-05-09T07:14:17;-21670.75;;;19.57;66.16
7337;BME280;54510;42.016;23.098;2023-05-09T07:16:42;-21670.59;;;19.57;67.09
7337;BME280;54510;42.016;23.098;2023-05-09T07:19:07;-21661.53;;;19.23;68.81
7337;BME280;54510;42.016;23.098;2023-05-09T07:21:33;-21665.78;;;19.39;69.16
7337;BME280;54510;42.016;23.098;2023-05-09T07:23:58;-21668.13;;;19.48;68.58
7337;BME280;54510;42.016;23.098;2023-05-09T07:26:23;-21675.28;;;19.74;67.08
7337;BME280;54510;42.016;23.098;2023-05-09T07:28:48;-21678.84;;;19.87;66.39
7337;BME280;54510;42.016;23.098;2023-05-09T07:31:14;-21675.53;;;19.75;66.68
7337;BME280;54510;42.016;23.098;2023-05-09T07:33:39;-21680.91;;;19.95;66.56
7337;BME280;54510;42.016;23.098;2023-05-09T07:36:04;-21677.59;;;19.83;67.45
7337;BME280;54510;42.016;23.098;2023-05-09T07:38:30;-21676.22;;;19.78;68.42
7337;BME280;54510;42.016;23.098;2023-05-09T07:40:55;-21675.41;;;19.75;68.47
7337;BME280;54510;42.016;23.098;2023-05-09T07:43:20;-21676.50;;;19.79;68.73
7337;BME280;54510;42.016;23.098;2023-05-09T07:45:46;-21672.81;;;19.65;69.06
7337;BME280;54510;42.016;23.098;2023-05-09T07:48:11;-21673.06;;;19.66;68.34
7337;BME280;54510;42.016;23.098;2023-05-09T07:50:37;-21674.44;;;19.71;68.28
7337;BME280;54510;42.016;23.098;2023-05-09T07:53:02;-21683.09;;;20.03;67.82
7337;BME280;54510;42.016;23.098;2023-05-09T07:55:27;-21690.09;;;20.29;66.80
7337;BME280;54510;42.016;23.098;2023-05-09T07:57:52;-21687.88;;;20.21;66.23
7337;BME280;54510;42.016;23.098;2023-05-09T08:00:18;-21686.78;;;20.17;63.82
7337;BME280;54510;42.016;23.098;2023-05-09T08:02:47;-21687.34;;;20.19;62.53
7337;BME280;54510;42.016;23.098;2023-05-09T08:05:12;-21695.84;;;20.50;63.30
7337;BME280;54510;42.016;23.098;2023-05-09T08:07:38;-21702.41;;;20.74;60.84
7337;BME280;54510;42.016;23.098;2023-05-09T08:10:03;-21702.97;;;20.76;58.52
7337;BME280;54510;42.016;23.098;2023-05-09T08:12:28;-21704.34;;;20.81;62.27
7337;BME280;54510;42.016;23.098;2023-05-09T08:14:54;-21697.22;;;20.55;61.03
7337;BME280;54510;42.016;23.098;2023-05-09T08:17:19;-21703.25;;;20.77;61.42
7337;BME280;54510;42.016;23.098;2023-05-09T08:19:44;-21704.06;;;20.80;61.20
7337;BME280;54510;42.016;23.098;2023-05-09T08:22:15;-21710.63;;;21.05;62.36
7337;BME280;54510;42.016;23.098;2023-05-09T08:24:40;-21710.09;;;21.03;61.17
7337;BME280;54510;42.016;23.098;2023-05-09T08:27:05;-21717.34;;;21.29;59.70
7337;BME280;54510;42.016;23.098;2023-05-09T08:29:31;-21715.31;;;21.22;57.19
7337;BME280;54510;42.016;23.098;2023-05-09T08:31:56;-21726.66;;;21.64;55.95
7337;BME280;54510;42.016;23.098;2023-05-09T08:34:21;-21728.03;;;21.69;56.53
7337;BME280;54510;42.016;23.098;2023-05-09T08:36:47;-21734.44;;;21.93;54.47
7337;BME280;54510;42.016;23.098;2023-05-09T08:39:12;-21735.81;;;21.98;54.78
7337;BME280;54510;42.016;23.098;2023-05-09T08:41:38;-21741.28;;;22.18;54.36
7337;BME280;54510;42.016;23.098;2023-05-09T08:44:03;-21747.03;;;22.39;53.79
7337;BME280;54510;42.016;23.098;2023-05-09T08:46:33;-21750.72;;;22.53;53.17
7337;BME280;54510;42.016;23.098;2023-05-09T08:49:00;-21749.63;;;22.49;52.28
7337;BME280;54510;42.016;23.098;2023-05-09T08:51:25;-21750.59;;;22.53;51.50
7337;BME280;54510;42.016;23.098;2023-05-09T08:53:51;-21747.03;;;22.39;51.19
7337;BME280;54510;42.016;23.098;2023-05-09T08:56:17;-21750.44;;;22.52;49.98
7337;BME280;54510;42.016;23.098;2023-05-09T08:58:42;-21755.09;;;22.69;50.39
7337;BME280;54510;42.016;23.098;2023-05-09T09:01:08;-21763.03;;;22.99;49.58
7337;BME280;54510;42.016;23.098;2023-05-09T09:03:33;-21770.00;;;23.24;49.15
7337;BME280;54510;42.016;23.098;2023-05-09T09:06:01;-21772.84;;;23.35;47.43
7337;BME280;54510;42.016;23.098;2023-05-09T09:08:26;-21775.31;;;23.44;48.03
7337;BME280;54510;42.016;23.098;2023-05-09T09:10:52;-21783.22;;;23.74;46.12
7337;BME280;54510;42.016;23.098;2023-05-09T09:13:18;-21774.91;;;23.43;46.50
7337;BME280;54510;42.016;23.098;2023-05-09T09:15:44;-21775.44;;;23.45;46.32
7337;BME280;54510;42.016;23.098;2023-05-09T09:18:11;-21770.81;;;23.28;48.70
7337;BME280;54510;42.016;23.098;2023-05-09T09:20:39;-21776.53;;;23.49;46.73
7337;BME280;54510;42.016;23.098;2023-05-09T09:23:06;-21779.81;;;23.61;46.60
7337;BME280;54510;42.016;23.098;2023-05-09T09:25:34;-21781.19;;;23.66;47.41
7337;BME280;54510;42.016;23.098;2023-05-09T09:27:59;-21784.19;;;23.77;48.60
7337;BME280;54510;42.016;23.098;2023-05-09T09:30:25;-21781.88;;;23.69;47.25
7337;BME280;54510;42.016;23.098;2023-05-09T09:32:50;-21785.81;;;23.83;47.03
7337;BME280;54510;42.016;23.098;2023-05-09T09:35:16;-21792.09;;;24.07;45.57
7337;BME280;54510;42.016;23.098;2023-05-09T09:37:41;-21791.97;;;24.06;44.33
7337;BME280;54510;42.016;23.098;2023-05-09T09:40:10;-21796.47;;;24.23;44.41
7337;BME280;54510;42.016;23.098;2023-05-09T09:42:45;-21796.47;;;24.23;44.73
7337;BME280;54510;42.016;23.098;2023-05-09T09:45:11;-21795.22;;;24.18;43.57
7337;BME280;54510;42.016;23.098;2023-05-09T09:47:37;-21799.03;;;24.32;44.70
7337;BME280;54510;42.016;23.098;2023-05-09T09:50:12;-21798.63;;;24.31;44.29
7337;BME280;54510;42.016;23.098;2023-05-09T09:52:42;-21806.28;;;24.59;44.53
7337;BME280;54510;42.016;23.098;2023-05-09T09:55:08;-21814.03;;;24.88;43.67
7337;BME280;54510;42.016;23.098;2023-05-09T09:57:34;-21817.44;;;25.01;42.44
7337;BME280;54510;42.016;23.098;2023-05-09T10:00:00;-21816.09;;;24.96;43.38
7337;BME280;54510;42.016;23.098;2023-05-09T10:02:26;-21812.53;;;24.83;43.32
7337;BME280;54510;42.016;23.098;2023-05-09T10:04:51;-21814.84;;;24.91;41.93
7337;BME280;54510;42.016;23.098;2023-05-09T10:07:17;-21813.50;;;24.86;42.52
7337;BME280;54510;42.016;23.098;2023-05-09T10:09:46;-21812.25;;;24.82;42.18
7337;BME280;54510;42.016;23.098;2023-05-09T10:12:13;-21815.81;;;24.95;42.47
7337;BME280;54510;42.016;23.098;2023-05-09T10:14:39;-21822.63;;;25.20;42.44
7337;BME280;54510;42.016;23.098;2023-05-09T10:17:06;-21820.56;;;25.12;41.10
7337;BME280;54510;42.016;23.098;2023-05-09T10:19:32;-21815.81;;;24.95;42.05
7337;BME280;54510;42.016;23.098;2023-05-09T10:22:09;-21816.75;;;24.98;42.57
7337;BME280;54510;42.016;23.098;2023-05-09T10:27:08;-21811.72;;;24.79;41.29
7337;BME280;54510;42.016;23.098;2023-05-09T10:29:36;-21810.63;;;24.75;41.96
7337;BME280;54510;42.016;23.098;2023-05-09T10:32:08;-21817.31;;;25.00;42.70
7337;BME280;54510;42.016;23.098;2023-05-09T10:34:35;-21816.22;;;24.96;42.82
7337;BME280;54510;42.016;23.098;2023-05-09T10:37:03;-21817.44;;;25.01;42.56
7337;BME280;54510;42.016;23.098;2023-05-09T10:39:29;-21820.84;;;25.13;43.08
7337;BME280;54510;42.016;23.098;2023-05-09T10:41:55;-21819.22;;;25.07;42.58
7337;BME280;54510;42.016;23.098;2023-05-09T10:44:22;-21818.94;;;25.06;43.10
7337;BME280;54510;42.016;23.098;2023-05-09T10:46:48;-21820.16;;;25.11;42.76
7337;BME280;54510;42.016;23.098;2023-05-09T10:49:13;-21821.94;;;25.17;42.71
7337;BME280;54510;42.016;23.098;2023-05-09T10:51:39;-21818.00;;;25.03;43.50
7337;BME280;54510;42.016;23.098;2023-05-09T10:54:12;-21813.63;;;24.87;43.82
7337;BME280;54510;42.016;23.098;2023-05-09T10:56:37;-21814.03;;;24.88;42.89
7337;BME280;54510;42.016;23.098;2023-05-09T10:59:04;-21818.25;;;25.04;42.39
7337;BME280;54510;42.016;23.098;2023-05-09T11:01:30;-21822.06;;;25.18;41.91
7337;BME280;54510;42.016;23.098;2023-05-09T11:03:58;-21815.13;;;24.92;43.36
7337;BME280;54510;42.016;23.098;2023-05-09T11:17:03;-21786.63;;;23.86;45.97
7337;BME280;54510;42.016;23.098;2023-05-09T11:24:49;-21786.91;;;23.87;45.61
7337;BME280;54510;42.016;23.098;2023-05-09T11:29:44;-21777.22;;;23.51;45.43
7337;BME280;54510;42.016;23.098;2023-05-09T11:32:12;-21774.09;;;23.40;47.29
7337;BME280;54510;42.016;23.098;2023-05-09T11:34:38;-21766.97;;;23.13;48.85
7337;BME280;54510;42.016;23.098;2023-05-09T11:37:11;-21767.38;;;23.15;50.74
7337;BME280;54510;42.016;23.098;2023-05-09T11:42:22;-21764.13;;;23.03;52.16
7337;BME280;54510;42.016;23.098;2023-05-09T11:44:47;-21764.25;;;23.03;52.25
7337;BME280;54510;42.016;23.098;2023-05-09T11:47:13;-21760.44;;;22.89;52.87
7337;BME280;54510;42.016;23.098;2023-05-09T11:49:41;-21756.47;;;22.74;52.71
7337;BME280;54510;42.016;23.098;2023-05-09T11:52:06;-21755.78;;;22.72;51.59
7337;BME280;54510;42.016;23.098;2023-05-09T11:54:32;-21753.88;;;22.65;52.74
7337;BME280;54510;42.016;23.098;2023-05-09T11:56:57;-21755.09;;;22.69;50.91
7337;BME280;54510;42.016;23.098;2023-05-09T11:59:24;-21760.56;;;22.90;52.31
7337;BME280;54510;42.016;23.098;2023-05-09T12:01:49;-21761.13;;;22.92;51.77
7337;BME280;54510;42.016;23.098;2023-05-09T12:04:15;-21758.25;;;22.81;53.17
7337;BME280;54510;42.016;23.098;2023-05-09T12:06:45;-21754.41;;;22.67;53.54
7337;BME280;54510;42.016;23.098;2023-05-09T12:09:10;-21750.19;;;22.51;54.42
7337;BME280;54510;42.016;23.098;2023-05-09T12:11:36;-21745.53;;;22.34;56.45
7337;BME280;54510;42.016;23.098;2023-05-09T12:14:02;-21743.91;;;22.28;57.18
7337;BME280;54510;42.016;23.098;2023-05-09T12:16:27;-21744.97;;;22.32;57.17
7337;BME280;54510;42.016;23.098;2023-05-09T12:18:53;-21740.75;;;22.16;56.10
7337;BME280;54510;42.016;23.098;2023-05-09T12:21:19;-21745.94;;;22.35;56.16
7337;BME280;54510;42.016;23.098;2023-05-09T12:23:44;-21740.75;;;22.16;57.74
7337;BME280;54510;42.016;23.098;2023-05-09T12:26:11;-21734.44;;;21.93;59.76
7337;BME280;54510;42.016;23.098;2023-05-09T12:28:36;-21732.69;;;21.86;61.33
7337;BME280;54510;42.016;23.098;2023-05-09T12:31:02;-21726.13;;;21.62;61.95
7337;BME280;54510;42.016;23.098;2023-05-09T12:33:28;-21726.38;;;21.63;62.19
7337;BME280;54510;42.016;23.098;2023-05-09T12:36:04;-21723.38;;;21.52;62.62
7337;BME280;54510;42.016;23.098;2023-05-09T12:38:30;-21730.34;;;21.78;62.98
7337;BME280;54510;42.016;23.098;2023-05-09T12:43:33;-21728.44;;;21.71;63.39
7337;BME280;54510;42.016;23.098;2023-05-09T12:45:59;-21727.06;;;21.65;63.45
7337;BME280;54510;42.016;23.098;2023-05-09T12:48:25;-21730.63;;;21.79;63.28
7337;BME280;54510;42.016;23.098;2023-05-09T12:50:50;-21733.63;;;21.90;62.83
7337;BME280;54510;42.016;23.098;2023-05-09T12:53:25;-21733.78;;;21.90;61.31
7337;BME280;54510;42.016;23.098;2023-05-09T12:56:33;-21733.91;;;21.91;61.96
7337;BME280;54510;42.016;23.098;2023-05-09T12:58:46;-21724.34;;;21.55;62.43
7337;BME280;54510;42.016;23.098;2023-05-09T13:01:11;-21720.38;;;21.41;64.49
7337;BME280;54510;42.016;23.098;2023-05-09T13:03:38;-21712.81;;;21.13;64.67
7337;BME280;54510;42.016;23.098;2023-05-09T13:06:04;-21714.47;;;21.19;65.95
7337;BME280;54510;42.016;23.098;2023-05-09T13:08:29;-21713.50;;;21.15;63.38
7337;BME280;54510;42.016;23.098;2023-05-09T13:10:55;-21707.06;;;20.92;65.23
7337;BME280;54510;42.016;23.098;2023-05-09T13:13:23;-21705.84;;;20.87;66.16
7337;BME280;54510;42.016;23.098;2023-05-09T13:15:50;-21703.38;;;20.78;66.64
7337;BME280;54510;42.016;23.098;2023-05-09T13:18:16;-21710.50;;;21.04;66.88
7337;BME280;54510;42.016;23.098;2023-05-09T13:20:41;-21712.56;;;21.12;66.21
7337;BME280;54510;42.016;23.098;2023-05-09T13:23:06;-21709.53;;;21.01;66.49